Time;durP1;ratioP1;P1;durP2;ratioP2;P2;SDS_P1;SDS_P2;PMS_P1;PMS_P2;Temp;Humidity;BMP_temperature;BMP_pressure;BME280_temperature;BME280_humidity;BME280_pressure;Samples;Min_cycle;Max_cycle;Signal;HPM_P1;HPM_P2
2021/01/19 00:00:01;;;;;;;;;;;;;;;17.31;61.38;101982.34;4970288;28;972;-74
2021/01/19 00:02:27;;;;;;;;;;;;;;;17.32;61.33;101984.97;4969119;28;1990;-73
2021/01/19 00:04:53;;;;;;;;;;;;;;;17.32;61.81;101974.41;4959360;28;1919;-73
2021/01/19 00:07:20;;;;;;;;;;;;;;;17.32;61.58;101987.59;4947779;28;1788;-72
2021/01/19 00:09:46;;;;;;;;;;;;;;;17.32;61.01;101978.81;4945299;28;1865;-73
2021/01/19 00:12:12;;;;;;;;;;;;;;;17.32;60.89;101976.19;4947177;28;1933;-72
2021/01/19 00:14:39;;;;;;;;;;;;;;;17.31;61.30;101967.41;4931680;28;1824;-72
2021/01/19 00:17:05;;;;;;;;;;;;;;;17.30;61.05;101959.56;4942817;28;1802;-72
2021/01/19 00:19:31;;;;;;;;;;;;;;;17.30;61.21;101959.56;4912888;29;1834;-72
2021/01/19 00:21:57;;;;;;;;;;;;;;;17.30;60.98;101963.06;4928167;29;2001;-72
2021/01/19 00:24:23;;;;;;;;;;;;;;;17.30;60.53;101951.66;4929246;29;1277;-72
2021/01/19 00:26:50;;;;;;;;;;;;;;;17.30;61.04;101955.16;4929556;29;768;-73
2021/01/19 00:29:16;;;;;;;;;;;;;;;17.30;60.62;101947.25;4935168;28;1224;-72
2021/01/19 00:31:42;;;;;;;;;;;;;;;17.30;60.42;101949.00;4967882;28;776;-72
2021/01/19 00:34:08;;;;;;;;;;;;;;;17.30;60.32;101949.00;4950617;28;1214;-72
2021/01/19 00:36:34;;;;;;;;;;;;;;;17.30;60.28;101944.63;4951985;28;1237;-72
2021/01/19 00:39:01;;;;;;;;;;;;;;;17.30;60.35;101943.75;4969776;28;1222;-72
2021/01/19 00:41:29;;;;;;;;;;;;;;;17.29;60.30;101931.50;4952335;28;1977;-72
2021/01/19 00:43:55;;;;;;;;;;;;;;;17.30;60.58;101934.09;4933198;28;1500;-72
2021/01/19 00:46:21;;;;;;;;;;;;;;;17.29;60.37;101931.50;4950126;29;807;-71
2021/01/19 00:48:48;;;;;;;;;;;;;;;17.28;60.25;101927.16;4950581;28;1222;-71
2021/01/19 00:51:14;;;;;;;;;;;;;;;17.29;60.16;101931.50;4933392;29;760;-73
2021/01/19 00:53:41;;;;;;;;;;;;;;;17.29;60.36;101926.25;4950153;28;1318;-72
2021/01/19 00:56:07;;;;;;;;;;;;;;;17.28;60.21;101929.78;4952229;28;819;-72
2021/01/19 00:58:33;;;;;;;;;;;;;;;17.28;60.15;101938.53;4954194;29;1333;-72
2021/01/19 01:01:00;;;;;;;;;;;;;;;17.29;60.57;101937.66;4954062;29;820;-72
2021/01/19 01:03:29;;;;;;;;;;;;;;;17.27;60.24;101934.19;4953837;28;1986;-71
2021/01/19 01:05:56;;;;;;;;;;;;;;;17.28;60.28;101930.66;4936717;29;875;-71
2021/01/19 01:08:23;;;;;;;;;;;;;;;17.28;60.32;101935.03;4953859;29;1323;-71
2021/01/19 01:10:49;;;;;;;;;;;;;;;17.28;60.33;101932.41;4952306;29;1275;-72
2021/01/19 01:13:17;;;;;;;;;;;;;;;17.29;60.04;101939.41;4953838;28;1222;-73
2021/01/19 01:15:43;;;;;;;;;;;;;;;17.28;60.14;101929.78;4936826;29;752;-72
2021/01/19 01:18:14;;;;;;;;;;;;;;;17.27;60.20;101928.03;4953750;29;1238;-73
2021/01/19 01:20:41;;;;;;;;;;;;;;;17.26;60.35;101929.84;4953886;28;773;-73
2021/01/19 01:23:13;;;;;;;;;;;;;;;17.26;60.43;101926.34;4953479;28;1918;-73
2021/01/19 01:25:41;;;;;;;;;;;;;;;17.27;60.58;101928.03;4920422;29;1104;-73
2021/01/19 01:28:07;;;;;;;;;;;;;;;17.26;60.15;101921.09;4935693;29;1325;-73
2021/01/19 01:30:34;;;;;;;;;;;;;;;17.26;60.05;101926.34;4953165;29;1144;-73
2021/01/19 01:33:00;;;;;;;;;;;;;;;17.26;60.18;101923.72;4953103;29;1242;-71
2021/01/19 01:35:26;;;;;;;;;;;;;;;17.25;60.46;101922.84;4953051;28;768;-71
2021/01/19 01:38:04;;;;;;;;;;;;;;;17.26;60.17;101915.81;4953122;29;1281;-72
2021/01/19 01:40:30;;;;;;;;;;;;;;;17.27;60.72;101914.88;4953147;28;1044;-71
2021/01/19 01:42:58;;;;;;;;;;;;;;;17.25;60.19;101914.94;4952824;28;1976;-73
2021/01/19 01:45:26;;;;;;;;;;;;;;;17.19;59.88;101904.63;4952700;29;1370;-73
2021/01/19 01:47:54;;;;;;;;;;;;;;;17.27;59.85;101901.72;4952639;29;1304;-74
2021/01/19 01:50:21;;;;;;;;;;;;;;;17.25;59.68;101901.78;4952836;28;803;-72
2021/01/19 01:52:48;;;;;;;;;;;;;;;17.26;59.55;101910.53;4952602;28;1218;-73
2021/01/19 01:55:15;;;;;;;;;;;;;;;17.26;59.73;101907.91;4952586;28;1073;-73
2021/01/19 01:57:41;;;;;;;;;;;;;;;17.19;59.85;101899.34;4952876;29;1226;-71
2021/01/19 02:00:09;;;;;;;;;;;;;;;17.25;59.60;101907.03;4951901;28;1000;-71
2021/01/19 02:02:46;;;;;;;;;;;;;;;17.26;59.65;101911.41;4952418;29;1977;-71
2021/01/19 02:05:12;;;;;;;;;;;;;;;17.25;59.86;101890.38;4936208;29;764;-70
2021/01/19 02:07:57;;;;;;;;;;;;;;;17.25;59.67;101903.53;4952250;28;1319;-71
2021/01/19 02:10:26;;;;;;;;;;;;;;;17.25;59.48;101903.53;4952575;28;788;-72
2021/01/19 02:13:04;;;;;;;;;;;;;;;17.25;59.48;101900.91;4952064;28;1334;-70
2021/01/19 02:15:34;;;;;;;;;;;;;;;17.24;59.63;101888.66;4934834;29;1239;-71
2021/01/19 02:18:21;;;;;;;;;;;;;;;17.24;59.63;101896.53;4952832;28;1226;-72
2021/01/19 02:20:58;;;;;;;;;;;;;;;17.25;59.73;101893.00;4906555;29;1101;-72
2021/01/19 02:23:36;;;;;;;;;;;;;;;17.24;59.82;101888.66;4952095;28;1979;-72
2021/01/19 02:26:18;;;;;;;;;;;;;;;17.24;59.57;101896.53;4952413;29;847;-72
2021/01/19 02:28:49;;;;;;;;;;;;;;;17.24;59.68;101899.19;4952843;29;1356;-71
2021/01/19 02:31:35;;;;;;;;;;;;;;;17.24;59.26;101886.88;4952292;29;828;-71
2021/01/19 02:34:21;;;;;;;;;;;;;;;17.25;59.42;101887.75;4942056;29;1243;-71
2021/01/19 02:37:06;;;;;;;;;;;;;;;17.24;59.01;101889.50;4951923;29;841;-71
2021/01/19 02:39:51;;;;;;;;;;;;;;;17.25;59.04;101882.47;4934489;29;1487;-71
2021/01/19 02:42:30;;;;;;;;;;;;;;;17.24;59.09;101886.88;4934385;29;1984;-71
2021/01/19 02:44:58;;;;;;;;;;;;;;;17.24;59.24;101878.13;4934702;29;1470;-70
2021/01/19 02:47:24;;;;;;;;;;;;;;;17.24;58.89;101881.63;4951703;28;1230;-70
2021/01/19 02:49:50;;;;;;;;;;;;;;;17.23;58.85;101873.78;4952139;29;1270;-71
2021/01/19 02:52:17;;;;;;;;;;;;;;;17.17;59.23;101869.59;4951602;28;1328;-71
2021/01/19 02:54:44;;;;;;;;;;;;;;;17.24;59.10;101864.94;4934069;29;1165;-71
2021/01/19 02:57:11;;;;;;;;;;;;;;;17.24;59.04;101875.47;4951919;29;1230;-71
2021/01/19 02:59:46;;;;;;;;;;;;;;;17.23;59.10;101873.78;4934637;29;1188;-72
2021/01/19 03:02:18;;;;;;;;;;;;;;;17.23;59.01;101873.78;4951742;29;1982;-71
2021/01/19 03:04:47;;;;;;;;;;;;;;;17.24;59.07;101865.81;4951879;29;1089;-71
2021/01/19 03:07:15;;;;;;;;;;;;;;;17.23;59.18;101868.50;4934336;29;1229;-73
2021/01/19 03:09:42;;;;;;;;;;;;;;;17.22;58.77;101859.75;4934541;29;1031;-72
2021/01/19 03:12:11;;;;;;;;;;;;;;;17.23;58.78;101847.44;4951529;29;1133;-71
2021/01/19 03:14:38;;;;;;;;;;;;;;;17.22;59.17;101843.94;4951809;29;1061;-71
2021/01/19 03:17:06;;;;;;;;;;;;;;;17.22;58.90;101840.44;4951359;28;776;-71
2021/01/19 03:19:34;;;;;;;;;;;;;;;17.23;58.85;101842.19;4951152;28;1222;-72
2021/01/19 03:22:00;;;;;;;;;;;;;;;17.22;58.91;101836.03;4951404;28;1906;-71
2021/01/19 03:24:26;;;;;;;;;;;;;;;17.21;58.69;101838.72;4951062;29;1234;-71
2021/01/19 03:26:53;;;;;;;;;;;;;;;17.22;58.68;101835.19;4951201;29;873;-70
2021/01/19 03:29:19;;;;;;;;;;;;;;;17.20;58.74;101827.34;4934084;29;1226;-71
2021/01/19 03:31:45;;;;;;;;;;;;;;;17.21;58.91;101828.19;4951213;28;835;-72
2021/01/19 03:34:11;;;;;;;;;;;;;;;17.24;58.50;101825.44;4917977;29;1336;-70
2021/01/19 03:36:38;;;;;;;;;;;;;;;17.23;59.27;101826.38;4950775;29;843;-71
2021/01/19 03:39:05;;;;;;;;;;;;;;;17.20;58.99;101821.22;4951299;29;1213;-70
2021/01/19 03:41:31;;;;;;;;;;;;;;;17.21;59.16;101817.66;4950570;28;1906;-71
2021/01/19 03:43:57;;;;;;;;;;;;;;;17.20;58.98;101822.09;4950749;28;1377;-71
2021/01/19 03:46:24;;;;;;;;;;;;;;;17.20;59.11;101819.44;4950884;28;756;-71
2021/01/19 03:48:50;;;;;;;;;;;;;;;17.19;59.16;101819.50;4951057;29;1238;-71
2021/01/19 03:51:17;;;;;;;;;;;;;;;17.20;59.00;101823.84;4933830;29;1081;-71
2021/01/19 03:53:43;;;;;;;;;;;;;;;17.20;59.35;101813.31;4950376;29;1248;-71
2021/01/19 03:56:09;;;;;;;;;;;;;;;17.18;59.21;101807.22;4933046;29;1207;-71
2021/01/19 03:58:36;;;;;;;;;;;;;;;17.20;59.14;101810.69;4950958;29;1219;-71
2021/01/19 04:01:02;;;;;;;;;;;;;;;17.20;59.61;101813.31;4933709;29;879;-71
2021/01/19 04:03:29;;;;;;;;;;;;;;;17.20;59.28;101816.81;4933234;29;1977;-71
2021/01/19 04:05:55;;;;;;;;;;;;;;;17.20;59.00;101818.59;4950844;28;911;-70
2021/01/19 04:08:22;;;;;;;;;;;;;;;17.19;59.09;101814.22;4950825;29;1237;-72
2021/01/19 04:10:48;;;;;;;;;;;;;;;17.20;59.11;101814.19;4933568;29;1085;-70
2021/01/19 04:13:16;;;;;;;;;;;;;;;17.19;59.12;101815.09;4933591;29;1301;-71
2021/01/19 04:15:42;;;;;;;;;;;;;;;17.19;59.25;101820.34;4950699;28;906;-69
2021/01/19 04:18:09;;;;;;;;;;;;;;;17.19;59.03;101814.22;4950552;28;1218;-69
2021/01/19 04:20:35;;;;;;;;;;;;;;;17.19;58.87;101814.22;4950516;29;851;-69
2021/01/19 04:23:02;;;;;;;;;;;;;;;17.19;59.02;101817.72;4950427;28;1906;-69
2021/01/19 04:25:29;;;;;;;;;;;;;;;17.19;58.94;101803.69;4933055;29;1187;-70
2021/01/19 04:27:56;;;;;;;;;;;;;;;17.18;58.78;101807.22;4933486;29;1210;-71
2021/01/19 04:30:22;;;;;;;;;;;;;;;17.18;58.82;101808.09;4952858;28;856;-72
2021/01/19 04:32:49;;;;;;;;;;;;;;;17.19;58.98;101806.31;4954040;28;1210;-71
2021/01/19 04:35:15;;;;;;;;;;;;;;;17.17;58.91;101811.66;4954034;28;824;-70
2021/01/19 04:37:42;;;;;;;;;;;;;;;17.17;58.86;101810.78;4953559;28;1242;-71
2021/01/19 04:40:08;;;;;;;;;;;;;;;17.17;58.64;101803.75;4953921;28;764;-71
2021/01/19 04:42:36;;;;;;;;;;;;;;;17.18;59.08;101804.59;4936718;29;1942;-71
2021/01/19 04:45:04;;;;;;;;;;;;;;;17.18;58.73;101807.22;4954282;28;1385;-71
2021/01/19 04:47:32;;;;;;;;;;;;;;;17.18;59.42;101808.09;4952438;29;1345;-71
2021/01/19 04:49:58;;;;;;;;;;;;;;;17.18;58.91;101809.84;4952483;28;1179;-72
2021/01/19 04:52:26;;;;;;;;;;;;;;;17.18;58.80;101807.22;4953837;28;1241;-71
2021/01/19 04:55:09;;;;;;;;;;;;;;;17.17;58.89;101802.88;4954171;29;883;-70
2021/01/19 04:57:39;;;;;;;;;;;;;;;17.18;58.84;101804.59;4953993;28;1230;-71
2021/01/19 05:00:06;;;;;;;;;;;;;;;17.17;58.81;101803.75;4935778;29;785;-71
2021/01/19 05:02:35;;;;;;;;;;;;;;;17.17;59.24;101806.38;4953787;29;1931;-71
2021/01/19 05:05:17;;;;;;;;;;;;;;;17.16;58.66;101798.53;4936585;29;1325;-70
2021/01/19 05:08:16;;;;;;;;;;;;;;;17.16;58.53;101801.16;4953717;29;1410;-70
2021/01/19 05:10:47;;;;;;;;;;;;;;;17.15;58.57;101802.94;4936442;29;1481;-71
2021/01/19 05:13:14;;;;;;;;;;;;;;;17.16;58.46;101806.44;4961597;28;1529;-71
2021/01/19 05:15:48;;;;;;;;;;;;;;;17.11;58.56;101795.19;4936021;29;1250;-71
2021/01/19 05:18:15;;;;;;;;;;;;;;;17.15;58.86;101804.69;4936037;29;1293;-71
2021/01/19 05:20:51;;;;;;;;;;;;;;;17.15;58.70;101808.19;4953302;28;1097;-70
2021/01/19 05:23:21;;;;;;;;;;;;;;;17.14;58.62;101809.13;4953496;29;1914;-70
2021/01/19 05:25:50;;;;;;;;;;;;;;;17.14;58.65;101803.00;4953444;29;1033;-70
2021/01/19 05:28:17;;;;;;;;;;;;;;;17.15;58.41;101812.59;4953351;28;1226;-70
2021/01/19 05:30:50;;;;;;;;;;;;;;;17.12;58.75;101807.44;4936566;29;890;-70
2021/01/19 05:33:17;;;;;;;;;;;;;;;17.14;58.54;101810.88;4953104;29;1276;-70
2021/01/19 05:35:44;;;;;;;;;;;;;;;17.15;58.45;101799.44;4936028;29;832;-70
2021/01/19 05:38:10;;;;;;;;;;;;;;;17.14;58.52;101810.88;4953106;28;1375;-70
2021/01/19 05:40:44;;;;;;;;;;;;;;;17.14;58.50;101810.88;4935120;29;835;-70
2021/01/19 05:43:10;;;;;;;;;;;;;;;17.15;58.27;101818.72;4935932;29;1919;-70
2021/01/19 05:45:37;;;;;;;;;;;;;;;17.18;58.18;101817.75;4952762;28;1388;-71
2021/01/19 05:48:12;;;;;;;;;;;;;;;17.16;58.29;101809.94;4953226;29;1283;-71
2021/01/19 05:50:39;;;;;;;;;;;;;;;17.15;58.41;101812.59;4953104;29;807;-71
2021/01/19 05:53:15;;;;;;;;;;;;;;;17.14;58.40;101810.88;4953061;29;1214;-71
2021/01/19 05:55:42;;;;;;;;;;;;;;;17.13;58.31;101810.03;4935531;29;1339;-71
2021/01/19 05:58:12;;;;;;;;;;;;;;;17.13;58.52;101817.94;4952850;28;1308;-71
2021/01/19 06:00:39;;;;;;;;;;;;;;;17.13;58.28;101817.94;4953084;28;827;-72
2021/01/19 06:03:16;;;;;;;;;;;;;;;17.14;58.26;101822.28;4952798;29;1958;-71
2021/01/19 06:05:44;;;;;;;;;;;;;;;17.13;58.23;101820.56;4935602;29;792;-71
2021/01/19 06:08:10;;;;;;;;;;;;;;;17.13;58.23;101819.69;4952608;28;1250;-69
2021/01/19 06:10:38;;;;;;;;;;;;;;;17.13;57.75;101819.69;4953006;28;1596;-69
2021/01/19 06:13:14;;;;;;;;;;;;;;;17.07;58.09;101810.22;4949292;28;1492;-70
2021/01/19 06:15:41;;;;;;;;;;;;;;;17.12;58.25;101817.97;4971022;28;798;-70
2021/01/19 06:18:10;;;;;;;;;;;;;;;17.12;57.97;101818.81;4971567;28;1229;-69
2021/01/19 06:20:40;;;;;;;;;;;;;;;17.13;58.11;101817.06;4971451;28;776;-67
2021/01/19 06:23:09;;;;;;;;;;;;;;;17.17;58.70;101822.19;4971420;28;1964;-70
2021/01/19 06:25:36;;;;;;;;;;;;;;;17.17;58.05;101826.59;4971706;28;1136;-70
2021/01/19 06:28:09;;;;;;;;;;;;;;;17.15;58.14;101828.38;4954026;28;1236;-69
2021/01/19 06:30:36;;;;;;;;;;;;;;;17.16;59.20;101827.50;4938018;28;1472;-69
2021/01/19 06:33:03;;;;;;;;;;;;;;;17.17;58.60;101816.91;4953965;28;1784;-71
2021/01/19 06:35:38;;;;;;;;;;;;;;;17.24;59.38;101821.03;4954261;28;808;-73
2021/01/19 06:38:05;;;;;;;;;;;;;;;17.33;59.33;101826.00;4937937;28;1346;-73
2021/01/19 06:40:33;;;;;;;;;;;;;;;17.33;60.40;101826.00;4938009;28;1180;-72
2021/01/19 06:43:04;;;;;;;;;;;;;;;17.27;59.27;101823.56;4972289;28;1910;-71
2021/01/19 06:45:34;;;;;;;;;;;;;;;17.24;58.86;101828.09;4954101;28;1373;-73
2021/01/19 06:48:02;;;;;;;;;;;;;;;17.28;60.51;101827.06;4937588;28;1300;-72
2021/01/19 06:50:30;;;;;;;;;;;;;;;17.26;59.83;101824.50;4953641;28;1241;-71
2021/01/19 06:53:03;;;;;;;;;;;;;;;17.38;60.60;101828.50;4971276;28;1367;-71
2021/01/19 06:55:44;;;;;;;;;;;;;;;17.38;60.67;101831.13;4953523;28;1513;-70
2021/01/19 06:58:11;;;;;;;;;;;;;;;17.45;60.25;101822.94;4953678;28;1245;-70
2021/01/19 07:00:38;;;;;;;;;;;;;;;17.37;60.32;101829.41;4970988;28;870;-67
2021/01/19 07:03:16;;;;;;;;;;;;;;;17.33;61.62;101833.91;4970863;28;2009;-69
2021/01/19 07:05:48;;;;;;;;;;;;;;;17.32;61.53;101831.34;4953362;28;776;-69
2021/01/19 07:08:20;;;;;;;;;;;;;;;17.32;60.33;101833.97;4970834;28;1233;-72
2021/01/19 07:11:06;;;;;;;;;;;;;;;17.31;61.47;101829.59;4953026;28;1215;-72
2021/01/19 07:13:41;;;;;;;;;;;;;;;17.31;61.73;101837.50;4953106;28;1265;-73
2021/01/19 07:16:09;;;;;;;;;;;;;;;17.31;61.88;101833.09;4953038;28;1262;-73
2021/01/19 07:19:08;;;;;;;;;;;;;;;17.34;61.96;101835.63;4970833;28;1379;-74
2021/01/19 07:21:43;;;;;;;;;;;;;;;17.36;60.64;101828.53;4927521;28;1019;-70
2021/01/19 07:24:17;;;;;;;;;;;;;;;17.40;60.60;101838.06;4960385;28;1902;-71
2021/01/19 07:26:45;;;;;;;;;;;;;;;17.35;60.85;101832.09;4938127;28;1529;-73
2021/01/19 07:29:15;;;;;;;;;;;;;;;17.31;61.70;101832.25;4933922;29;1286;-72
2021/01/19 07:31:41;;;;;;;;;;;;;;;17.31;61.42;101834.88;4950916;28;1029;-71
2021/01/19 07:34:09;;;;;;;;;;;;;;;17.33;61.74;101835.66;4950945;29;1308;-70
2021/01/19 07:36:36;;;;;;;;;;;;;;;17.34;61.64;101822.47;4949997;29;1064;-71
2021/01/19 07:39:11;;;;;;;;;;;;;;;17.33;61.71;101827.75;4951127;29;1324;-72
2021/01/19 07:41:41;;;;;;;;;;;;;;;17.31;61.63;101824.34;4965359;28;1304;-74
2021/01/19 07:44:17;;;;;;;;;;;;;;;17.41;61.14;101831.88;4933193;29;1979;-73
2021/01/19 07:47:09;;;;;;;;;;;;;;;17.50;60.54;101838.59;4935375;29;1801;-73
2021/01/19 07:49:36;;;;;;;;;;;;;;;17.47;60.97;101839.56;4948885;28;1810;-72
2021/01/19 07:52:12;;;;;;;;;;;;;;;17.47;61.00;101830.81;4949122;29;1802;-71
2021/01/19 07:54:39;;;;;;;;;;;;;;;17.45;61.32;101828.22;4949235;28;1818;-71
2021/01/19 07:57:13;;;;;;;;;;;;;;;17.51;60.32;101832.41;4933853;29;1137;-72
2021/01/19 07:59:40;;;;;;;;;;;;;;;17.50;61.34;101820.16;4916982;29;1482;-69
2021/01/19 08:02:07;;;;;;;;;;;;;;;17.62;60.21;101826.81;4951273;28;1920;-76
2021/01/19 08:04:37;;;;;;;;;;;;;;;17.57;60.71;101816.41;4953926;28;1826;-75
2021/01/19 08:07:19;;;;;;;;;;;;;;;17.56;60.49;101820.00;4949580;28;1093;-74
2021/01/19 08:09:46;;;;;;;;;;;;;;;17.57;60.20;101821.69;4949175;29;831;-74
2021/01/19 08:12:14;;;;;;;;;;;;;;;17.65;60.73;101824.94;4949283;28;1379;-74
2021/01/19 08:14:43;;;;;;;;;;;;;;;17.71;60.44;101829.97;4932173;29;760;-72
2021/01/19 08:17:09;;;;;;;;;;;;;;;17.67;60.28;101825.72;4915515;29;1080;-73
2021/01/19 08:19:37;;;;;;;;;;;;;;;17.63;60.15;101824.09;4949165;28;1230;-73
2021/01/19 08:22:08;;;;;;;;;;;;;;;17.63;60.17;101826.72;4930537;29;1907;-70
2021/01/19 08:24:42;;;;;;;;;;;;;;;17.65;60.21;101829.34;4897927;29;1132;-71
2021/01/19 08:27:09;;;;;;;;;;;;;;;17.66;60.25;101824.00;4930395;29;1082;-72
2021/01/19 08:29:37;;;;;;;;;;;;;;;17.67;60.40;101824.84;4930490;29;1198;-74
2021/01/19 08:32:04;;;;;;;;;;;;;;;17.69;59.99;101820.41;4930444;29;1048;-72
2021/01/19 08:34:32;;;;;;;;;;;;;;;17.69;60.13;101823.06;4912791;29;1587;-72
2021/01/19 08:37:00;;;;;;;;;;;;;;;17.71;60.32;101823.84;4929872;29;1071;-71
2021/01/19 08:39:26;;;;;;;;;;;;;;;17.76;60.09;101825.41;4929682;29;1277;-72
2021/01/19 08:41:53;;;;;;;;;;;;;;;17.79;60.13;101824.41;4929798;29;1139;-75
2021/01/19 08:44:31;;;;;;;;;;;;;;;17.75;60.24;101825.47;4929773;29;1372;-75
2021/01/19 08:46:59;;;;;;;;;;;;;;;17.80;60.64;101827.00;4930257;29;1202;-76
2021/01/19 08:49:32;;;;;;;;;;;;;;;17.91;59.79;101832.75;4926388;28;1415;-73
2021/01/19 08:51:58;;;;;;;;;;;;;;;17.92;59.81;101829.22;4936302;28;1157;-72
2021/01/19 08:54:29;;;;;;;;;;;;;;;17.80;60.11;101824.38;4959376;28;1751;-72
2021/01/19 08:56:57;;;;;;;;;;;;;;;17.82;59.99;101838.34;4931461;29;1208;-75
2021/01/19 08:59:35;;;;;;;;;;;;;;;17.83;60.04;101834.81;4948656;29;1266;-73
2021/01/19 09:02:04;;;;;;;;;;;;;;;17.80;60.01;101840.19;4931655;29;1907;-74
2021/01/19 09:04:31;;;;;;;;;;;;;;;17.77;60.07;101840.31;4947239;28;1246;-72
2021/01/19 09:07:05;;;;;;;;;;;;;;;17.76;60.16;101835.94;4931330;29;1196;-71
2021/01/19 09:09:33;;;;;;;;;;;;;;;17.75;60.15;101841.28;4948685;28;1328;-73
2021/01/19 09:12:02;;;;;;;;;;;;;;;17.77;60.09;101845.56;4950048;28;1018;-77
2021/01/19 09:14:31;;;;;;;;;;;;;;;17.74;60.71;101843.06;4932258;29;1242;-81
2021/01/19 09:16:57;;;;;;;;;;;;;;;17.76;60.14;101854.38;4950960;28;1112;-73
2021/01/19 09:19:24;;;;;;;;;;;;;;;17.72;60.49;101855.41;4951693;28;1372;-74
2021/01/19 09:21:50;;;;;;;;;;;;;;;17.70;60.63;101862.50;4936076;28;1594;-75
2021/01/19 09:24:21;;;;;;;;;;;;;;;17.70;61.06;101864.28;4960110;28;1969;-72
2021/01/19 09:27:05;;;;;;;;;;;;;;;17.67;60.76;101853.84;4934426;29;1079;-73
2021/01/19 09:29:33;;;;;;;;;;;;;;;17.74;60.43;101840.41;4930608;29;1309;-72
2021/01/19 09:32:00;;;;;;;;;;;;;;;17.73;60.63;101843.94;4935427;28;1787;-69
2021/01/19 09:34:27;;;;;;;;;;;;;;;17.95;60.75;101839.63;4956028;28;1727;-68
2021/01/19 09:36:54;;;;;;;;;;;;;;;18.00;60.09;101847.38;4934171;29;1786;-69
2021/01/19 09:39:28;;;;;;;;;;;;;;;17.91;60.61;101851.19;4933951;29;1329;-72
2021/01/19 09:41:56;;;;;;;;;;;;;;;17.87;60.79;101848.75;4952174;28;1549;-71
2021/01/19 09:44:23;;;;;;;;;;;;;;;17.93;60.94;101854.63;4970482;28;1918;-69
2021/01/19 09:46:54;;;;;;;;;;;;;;;18.01;61.03;101855.22;4970809;28;1106;-70
2021/01/19 09:49:24;;;;;;;;;;;;;;;18.02;60.49;101858.75;4955584;28;1791;-70
2021/01/19 09:51:51;;;;;;;;;;;;;;;17.87;60.56;101852.22;4951623;28;1057;-70
2021/01/19 09:54:20;;;;;;;;;;;;;;;17.71;56.55;101861.59;4933898;29;1306;-70
2021/01/19 09:56:57;;;;;;;;;;;;;;;17.68;59.16;101850.31;4951469;28;932;-72
2021/01/19 09:59:24;;;;;;;;;;;;;;;17.64;60.36;101859.22;4951310;28;1313;-69
2021/01/19 10:01:51;;;;;;;;;;;;;;;17.61;61.18;101865.47;4951251;28;1014;-70
2021/01/19 10:04:18;;;;;;;;;;;;;;;17.59;60.42;101866.44;4950654;29;1906;-70
2021/01/19 10:06:47;;;;;;;;;;;;;;;17.57;60.99;101866.47;4933857;29;1723;-72
2021/01/19 10:09:22;;;;;;;;;;;;;;;17.47;60.40;101852.75;4933586;29;1210;-73
2021/01/19 10:11:55;;;;;;;;;;;;;;;17.56;59.63;101864.78;4951349;28;1038;-71
2021/01/19 10:14:28;;;;;;;;;;;;;;;17.58;59.58;101864.69;4951249;29;1227;-71
2021/01/19 10:16:55;;;;;;;;;;;;;;;17.58;59.13;101856.78;4951295;29;1098;-69
2021/01/19 10:19:22;;;;;;;;;;;;;;;17.56;58.46;101862.13;4933461;29;1249;-69
2021/01/19 10:21:50;;;;;;;;;;;;;;;17.56;58.20;101859.50;4950829;29;1056;-68
2021/01/19 10:24:17;;;;;;;;;;;;;;;17.57;58.01;101852.47;4950667;28;1990;-70
2021/01/19 10:26:56;;;;;;;;;;;;;;;17.57;58.27;101849.84;4917259;28;1303;-70
2021/01/19 10:29:27;;;;;;;;;;;;;;;17.55;58.49;101849.00;4933649;29;1274;-70
2021/01/19 10:31:56;;;;;;;;;;;;;;;17.57;58.81;101853.31;4950839;29;1154;-71
2021/01/19 10:34:24;;;;;;;;;;;;;;;17.61;58.78;101840.88;4950546;29;1375;-71
2021/01/19 10:36:52;;;;;;;;;;;;;;;17.61;58.55;101847.03;4933743;29;1313;-71
2021/01/19 10:39:20;;;;;;;;;;;;;;;17.62;58.46;101842.63;4950532;29;1222;-71
2021/01/19 10:41:48;;;;;;;;;;;;;;;17.66;58.90;101842.44;4929482;29;1692;-68
2021/01/19 10:44:15;;;;;;;;;;;;;;;17.68;59.06;101839.75;4930950;29;1974;-71
2021/01/19 10:46:42;;;;;;;;;;;;;;;17.71;59.06;101834.38;4914128;29;1128;-71
2021/01/19 10:49:15;;;;;;;;;;;;;;;17.72;59.34;101830.84;4931312;29;1324;-72
2021/01/19 10:51:42;;;;;;;;;;;;;;;17.73;59.64;101833.41;4914271;29;935;-71
2021/01/19 10:54:09;;;;;;;;;;;;;;;17.75;59.35;101831.56;4930979;29;1340;-71
2021/01/19 10:56:36;;;;;;;;;;;;;;;17.77;59.42;101826.25;4913969;29;1084;-71
2021/01/19 10:59:02;;;;;;;;;;;;;;;17.78;59.50;101830.63;4931742;29;1365;-71
2021/01/19 11:01:29;;;;;;;;;;;;;;;17.79;59.41;101827.06;4931199;29;1101;-71
2021/01/19 11:03:57;;;;;;;;;;;;;;;17.80;59.49;101824.38;4931568;29;1903;-71
2021/01/19 11:06:34;;;;;;;;;;;;;;;17.81;59.30;101815.53;4914542;29;788;-69
2021/01/19 11:09:00;;;;;;;;;;;;;;;17.82;59.30;101812.00;4931282;29;1250;-70
2021/01/19 11:11:28;;;;;;;;;;;;;;;17.83;59.38;101802.31;4929400;29;799;-69
2021/01/19 11:14:02;;;;;;;;;;;;;;;17.84;59.51;101801.41;4913513;29;1264;-69
2021/01/19 11:16:29;;;;;;;;;;;;;;;17.85;59.35;101796.06;4913145;29;1486;-70
2021/01/19 11:18:58;;;;;;;;;;;;;;;17.84;59.33;101799.63;4913343;29;1336;-71
2021/01/19 11:21:25;;;;;;;;;;;;;;;17.85;59.11;101790.78;4930535;29;1116;-70
2021/01/19 11:23:52;;;;;;;;;;;;;;;17.87;59.33;101788.13;4930655;29;1986;-70
2021/01/19 11:26:18;;;;;;;;;;;;;;;17.81;59.40;101776.00;4913497;29;768;-70
2021/01/19 11:28:44;;;;;;;;;;;;;;;17.88;59.21;101780.13;4913505;29;1391;-72
2021/01/19 11:31:11;;;;;;;;;;;;;;;17.88;59.06;101764.31;4930657;29;1154;-72
2021/01/19 11:33:37;;;;;;;;;;;;;;;17.89;59.18;101771.31;4913955;29;1312;-70
2021/01/19 11:36:04;;;;;;;;;;;;;;;17.90;59.18;101761.66;4897900;29;1196;-72
2021/01/19 11:38:30;;;;;;;;;;;;;;;17.91;58.58;101763.34;4930568;29;1261;-76
2021/01/19 11:40:57;;;;;;;;;;;;;;;17.93;58.97;101759.72;4907199;29;1708;-73
2021/01/19 11:43:23;;;;;;;;;;;;;;;17.96;59.02;101754.34;4949587;28;1898;-73
2021/01/19 11:45:49;;;;;;;;;;;;;;;18.02;59.05;101743.56;4932334;29;1184;-69
2021/01/19 11:48:16;;;;;;;;;;;;;;;17.95;59.05;101739.47;4949471;28;1637;-70
2021/01/19 11:50:42;;;;;;;;;;;;;;;17.89;57.16;101723.88;4949549;28;891;-71
2021/01/19 11:53:08;;;;;;;;;;;;;;;17.79;56.72;101733.03;4931887;29;1560;-69
2021/01/19 11:55:35;;;;;;;;;;;;;;;17.74;57.15;101727.09;4932415;29;776;-72
2021/01/19 11:58:02;;;;;;;;;;;;;;;17.69;56.23;101721.13;4932308;29;1213;-70
2021/01/19 12:00:31;;;;;;;;;;;;;;;17.76;58.30;101719.97;4949548;29;867;-71
2021/01/19 12:02:58;;;;;;;;;;;;;;;17.79;57.17;101711.09;4965654;28;2015;-72
2021/01/19 12:05:24;;;;;;;;;;;;;;;17.78;55.95;101720.78;4950581;28;1167;-73
2021/01/19 12:07:50;;;;;;;;;;;;;;;17.77;56.61;101705.03;4968916;28;1213;-71
2021/01/19 12:10:17;;;;;;;;;;;;;;;17.81;55.41;101710.13;4951453;28;1552;-69
2021/01/19 12:12:43;;;;;;;;;;;;;;;17.89;58.22;101699.28;4969188;28;1273;-70
2021/01/19 12:15:09;;;;;;;;;;;;;;;17.93;57.91;101693.81;4968234;28;918;-73
2021/01/19 12:17:36;;;;;;;;;;;;;;;17.96;56.93;101691.06;4957209;28;1313;-70
2021/01/19 12:20:02;;;;;;;;;;;;;;;18.00;57.54;101686.53;4931268;29;1161;-70
2021/01/19 12:22:29;;;;;;;;;;;;;;;18.06;57.63;101677.53;4944995;29;1903;-69
2021/01/19 12:25:00;;;;;;;;;;;;;;;18.21;57.02;101672.50;4951741;28;1508;-69
2021/01/19 12:27:26;;;;;;;;;;;;;;;18.17;57.30;101664.78;4948446;28;1285;-69
2021/01/19 12:29:52;;;;;;;;;;;;;;;18.21;57.47;101653.22;4950308;28;2003;-69
2021/01/19 12:32:19;;;;;;;;;;;;;;;18.27;57.04;101653.81;4940893;28;1293;-69
2021/01/19 12:35:21;;;;;;;;;;;;;;;18.22;57.17;101657.56;4941506;29;1271;-71
2021/01/19 12:38:08;;;;;;;;;;;;;;;18.23;57.33;101641.69;4841596;29;1410;-69
2021/01/19 12:40:35;;;;;;;;;;;;;;;18.23;57.59;101640.81;4924242;29;1403;-69
2021/01/19 12:43:01;;;;;;;;;;;;;;;18.22;57.35;101639.94;4929915;29;1990;-68
2021/01/19 12:46:05;;;;;;;;;;;;;;;18.25;57.51;101631.06;4929415;29;1223;-70
2021/01/19 12:48:31;;;;;;;;;;;;;;;18.19;57.59;101620.75;4892213;29;1478;-69
2021/01/19 12:50:58;;;;;;;;;;;;;;;18.15;57.14;101611.28;4954750;28;1077;-68
2021/01/19 12:53:24;;;;;;;;;;;;;;;18.13;56.83;101613.09;4963085;28;1364;-69
2021/01/19 12:55:51;;;;;;;;;;;;;;;18.09;56.60;101609.72;4955273;28;830;-71
2021/01/19 12:58:17;;;;;;;;;;;;;;;18.08;55.92;101601.88;4972021;28;1293;-71